createdAt,value
2023-05-19T00:00:51.873Z,9.8
2023-05-19T00:15:53.031Z,9.4
2023-05-19T00:30:53.270Z,9.5
2023-05-19T00:45:54.102Z,9.3
2023-05-19T01:00:57.108Z,9.3
2023-05-19T01:15:55.576Z,9.4
2023-05-19T01:30:55.748Z,9.1
2023-05-19T01:45:56.577Z,9
2023-05-19T02:00:56.998Z,8.9
2023-05-19T02:15:57.640Z,8.9
2023-05-19T02:30:57.820Z,8.8
2023-05-19T02:45:58.384Z,8.8
2023-05-19T03:00:59.803Z,9
2023-05-19T03:15:59.949Z,8.8
2023-05-19T03:31:00.588Z,8.7
2023-05-19T03:44:43.324Z,8.7
2023-05-19T03:59:43.029Z,8.9
2023-05-19T04:14:43.564Z,8.7
2023-05-19T04:29:44.498Z,8.8
2023-05-19T04:44:44.441Z,8.8
2023-05-19T04:59:45.851Z,8.9
2023-05-19T05:14:46.140Z,9
2023-05-19T05:29:46.804Z,9.1
2023-05-19T05:44:47.733Z,8.9
2023-05-19T05:59:48.271Z,8.9
2023-05-19T06:14:48.498Z,8.9
2023-05-19T06:29:49.199Z,9.2
2023-05-19T06:44:55.523Z,9.3
2023-05-19T06:59:50.882Z,9.4
2023-05-19T07:14:51.826Z,9.4
2023-05-19T07:29:56.608Z,9.6
2023-05-19T07:44:53.891Z,10
2023-05-19T07:59:53.206Z,10
2023-05-19T08:14:54.326Z,10.1
2023-05-19T08:29:54.601Z,10.3
2023-05-19T08:44:56.949Z,10.5
2023-05-19T08:59:56.168Z,10.5
2023-05-19T09:14:57.252Z,10.7
2023-05-19T09:29:57.311Z,11.2
2023-05-19T09:44:59.149Z,11.3
2023-05-19T10:00:01.128Z,11.6
2023-05-19T10:15:16.413Z,11.6
2023-05-19T10:30:06.170Z,11.5
2023-05-19T10:45:07.772Z,11.6
2023-05-19T11:00:04.795Z,11.9
2023-05-19T11:15:02.928Z,13.4
2023-05-19T11:30:03.218Z,13.6
2023-05-19T11:45:04.081Z,13.9
2023-05-19T12:00:05.839Z,14.4
2023-05-19T12:15:05.573Z,15
2023-05-19T12:30:05.967Z,14.4
2023-05-19T12:45:07.326Z,14.3
2023-05-19T13:00:07.494Z,14.3
2023-05-19T13:15:11.924Z,14.3
2023-05-19T13:30:08.254Z,13.8
2023-05-19T13:45:10.731Z,13.8
2023-05-19T14:00:09.423Z,13.2
2023-05-19T14:15:13.402Z,13.2
2023-05-19T14:30:11.062Z,13
2023-05-19T14:45:11.426Z,12.8
2023-05-19T15:00:15.128Z,12.8
2023-05-19T15:15:13.100Z,12.7
2023-05-19T15:30:16.129Z,12.7
2023-05-19T15:45:13.875Z,12.4
2023-05-19T16:00:15.344Z,12.2
2023-05-19T16:15:15.835Z,12
2023-05-19T16:30:16.201Z,12.1
2023-05-19T16:45:16.748Z,11.9
2023-05-19T17:00:17.392Z,11.8
2023-05-19T17:15:18.304Z,11.8
2023-05-19T17:30:19.213Z,11.7
2023-05-19T17:45:19.874Z,11.7
2023-05-19T18:00:21.045Z,11.6
2023-05-19T18:15:21.076Z,11.6
2023-05-19T18:30:27.330Z,11.6
2023-05-19T18:45:22.462Z,11.4
2023-05-19T19:00:24.307Z,11.2
2023-05-19T19:15:25.424Z,11.1
2023-05-19T19:30:25.931Z,11.2
2023-05-19T19:45:26.700Z,11.2
2023-05-19T20:00:28.170Z,11.3
2023-05-19T20:15:29.289Z,11.3
2023-05-19T20:30:32.112Z,11.3
2023-05-19T20:45:32.015Z,11.3
2023-05-19T21:00:33.895Z,11.3
2023-05-19T21:15:31.880Z,11.4
2023-05-19T21:30:33.639Z,11.5
2023-05-19T21:45:35.392Z,11.5
2023-05-19T22:00:47.128Z,11.5
2023-05-19T22:15:46.874Z,11.5
2023-05-19T22:30:46.874Z,11.5
2023-05-19T22:45:47.412Z,11.4
2023-05-19T23:00:48.278Z,11.4
2023-05-19T23:15:49.633Z,11.4
2023-05-19T23:30:49.569Z,11.4
2023-05-19T23:45:50.165Z,11.4
